Thunder radar more information blitzortung!


Radar de pluja more information rain snow radar


Visita la nostra xarxa de llocs de meteo:

Template documentation
and downloads

And another site



No particular awareness of the weather is required.    There are no Weather-warnings

Pagina Historial Weather Underground text

Diari Resum Octubre 9, 2017 Unitats:  Imperial    Mètric   Tant
« Previous Dia
SegĂźent Dia »
Diari Setmana Mensual Anual Personalitzada
  Maxima: Minima: Media:
Temperatura: 77.2 °F 53.8 °F 64 °F
Punt de rosada: 59 °F 47.8 °F 54 °F
Humitat: 82 % 51 % 71 %
Wind Speed: 10 mph 0 mph 2.3 mph
RĂ fegues de vent: 10 mph - -
Vent:- - SSE
Pression baro: 30.2 in 30.1 in -
Precipitacions: 0 in    
Historical Graphs
 
 
Dades de taula per Octubre 9, 2017
Temps Temperatura Punt de rosada Pression baro Vent Wind Speed RĂ fegues de vent Humitat Rainfall Rate (Hourly)
00:03 61.7 °F 54.3 °F 30.2 in Calm     77 % 0 in
00:08 61.5 °F 54.7 °F 30.2 in Calm     78 % 0 in
00:13 61.3 °F 54.1 °F 30.2 in Calm     77 % 0 in
00:18 61.3 °F 54.1 °F 30.2 in Calm     77 % 0 in
00:23 61.2 °F 54 °F 30.2 in Calm     77 % 0 in
00:28 61.2 °F 54.1 °F 30.2 in Calm     78 % 0 in
00:33 61 °F 54.1 °F 30.2 in Calm     78 % 0 in
00:38 60.8 °F 54 °F 30.2 in Calm     78 % 0 in
00:43 60.6 °F 53.8 °F 30.2 in Calm     78 % 0 in
00:48 60.4 °F 53.4 °F 30.2 in Calm     78 % 0 in
00:53 60.3 °F 53.4 °F 30.2 in Calm     78 % 0 in
00:58 60.1 °F 53.2 °F 30.2 in Calm     78 % 0 in
01:03 60.1 °F 53.2 °F 30.2 in Calm     78 % 0 in
01:08 59.9 °F 53.1 °F 30.2 in Calm     78 % 0 in
01:14 59.7 °F 52.9 °F 30.1 in Calm     78 % 0 in
01:19 59.7 °F 53.2 °F 30.1 in Calm     79 % 0 in
01:24 59.5 °F 53.1 °F 30.1 in Calm     79 % 0 in
01:29 59.7 °F 52.9 °F 30.1 in Calm     78 % 0 in
01:34 59.5 °F 53.1 °F 30.1 in Calm     79 % 0 in
01:39 59.5 °F 53.1 °F 30.1 in Calm     79 % 0 in
01:44 59.5 °F 52.7 °F 30.1 in Calm     78 % 0 in
01:49 59.4 °F 52.5 °F 30.1 in Calm     78 % 0 in
01:54 59.4 °F 52.9 °F 30.1 in Calm     79 % 0 in
01:59 59.4 °F 52.5 °F 30.1 in Calm     78 % 0 in
02:04 59.2 °F 52.7 °F 30.1 in Calm     79 % 0 in
02:09 59 °F 52.5 °F 30.1 in East 1.4 mph 1.4 mph 79 % 0 in
02:14 58.8 °F 52.3 °F 30.1 in East 2.3 mph 2.3 mph 79 % 0 in
02:19 58.6 °F 52.2 °F 30.1 in ENE 3.5 mph 3.5 mph 79 % 0 in
02:24 58.3 °F 51.8 °F 30.1 in East 3.5 mph 3.5 mph 79 % 0 in
02:29 58.3 °F 51.8 °F 30.1 in East 2.4 mph 2.6 mph 79 % 0 in
02:34 58.1 °F 51.6 °F 30.1 in ENE 3.5 mph 3.5 mph 79 % 0 in
02:39 57.7 °F 51.3 °F 30.1 in ESE 2.3 mph 2.3 mph 79 % 0 in
02:44 57.4 °F 51.3 °F 30.1 in ESE 2.3 mph 2.3 mph 80 % 0 in
02:49 57.2 °F 50.7 °F 30.1 in ENE 2.3 mph 2.3 mph 79 % 0 in
02:54 57 °F 50.5 °F 30.1 in NE 2.3 mph 2.3 mph 79 % 0 in
02:59 56.8 °F 50.4 °F 30.2 in NE 1.2 mph   79 % 0 in
03:04 56.8 °F 50.7 °F 30.2 in Calm     80 % 0 in
03:09 56.7 °F 50.5 °F 30.2 in Calm     80 % 0 in
03:14 56.5 °F 50 °F 30.2 in NE 2.3 mph 2.3 mph 79 % 0 in
03:19 56.3 °F 49.8 °F 30.2 in SW 2.3 mph 2.3 mph 79 % 0 in
03:24 56.1 °F 50 °F 30.2 in Calm     80 % 0 in
03:29 55.9 °F 49.8 °F 30.1 in SW 0.9 mph   80 % 0 in
03:34 55.9 °F 49.8 °F 30.1 in Calm     80 % 0 in
03:39 55.9 °F 49.8 °F 30.1 in Calm     80 % 0 in
03:44 55.9 °F 49.8 °F 30.1 in SW 1.2 mph 1.2 mph 80 % 0 in
03:49 55.8 °F 49.6 °F 30.1 in Calm     80 % 0 in
03:54 55.6 °F 49.5 °F 30.1 in SW 1.2 mph   80 % 0 in
03:59 55.4 °F 49.3 °F 30.1 in Calm     80 % 0 in
04:04 55.4 °F 49.3 °F 30.1 in SW 2.3 mph   80 % 0 in
04:09 55.2 °F 49.3 °F 30.1 in SW 2.4 mph 2.4 mph 80 % 0 in
04:14 55.2 °F 48.7 °F 30.1 in SW 2 mph 2 mph 79 % 0 in
04:19 55.4 °F 48.9 °F 30.1 in Calm     79 % 0 in
04:24 55.4 °F 49.3 °F 30.1 in WSW 2.3 mph   80 % 0 in
04:29 55.4 °F 49.3 °F 30.1 in WSW 1.2 mph 1.2 mph 80 % 0 in
04:34 55.4 °F 49.3 °F 30.1 in WSW 1.4 mph 1.4 mph 80 % 0 in
04:36 55.4 °F 49.3 °F 30.1 in WSW 1.2 mph   80 % 0 in
04:41 55.6 °F 49.5 °F 30.1 in WSW 1.2 mph 1.2 mph 80 % 0 in
04:46 55.6 °F 49.5 °F 30.1 in SW 2.3 mph 2.3 mph 80 % 0 in
04:51 55.6 °F 49.5 °F 30.1 in SW 1.2 mph   80 % 0 in
04:56 55.6 °F 49.5 °F 30.1 in Calm     80 % 0 in
05:01 55.4 °F 49.3 °F 30.1 in Calm     80 % 0 in
05:06 55.4 °F 49.3 °F 30.1 in Calm     80 % 0 in
05:12 55.4 °F 49.3 °F 30.1 in Calm     80 % 0 in
05:17 55.2 °F 49.3 °F 30.1 in Calm     80 % 0 in
05:19 55.2 °F 49.3 °F 30.1 in Calm     80 % 0 in
05:22 55 °F 48.9 °F 30.1 in Calm     80 % 0 in
05:23 55 °F 48.9 °F 30.1 in Calm     80 % 0 in
05:24 55 °F 48.9 °F 30.1 in Calm     80 % 0 in
05:26 55 °F 48.9 °F 30.1 in Calm     80 % 0 in
05:27 54.9 °F 48.7 °F 30.1 in Calm     80 % 0 in
05:32 54.9 °F 48.7 °F 30.1 in Calm     80 % 0 in
05:35 54.9 °F 48.7 °F 30.1 in Calm     80 % 0 in
05:40 54.9 °F 48.7 °F 30.1 in SW 2.3 mph 2.3 mph 80 % 0 in
05:42 54.9 °F 48.7 °F 30.1 in SW 1.4 mph 1.4 mph 80 % 0 in
05:47 54.9 °F 48.7 °F 30.1 in Calm     80 % 0 in
05:52 54.9 °F 49.1 °F 30.1 in Calm     81 % 0 in
05:57 54.9 °F 48.7 °F 30.1 in Calm     80 % 0 in
06:02 54.9 °F 48.7 °F 30.1 in Calm     80 % 0 in
06:07 55 °F 48.9 °F 30.1 in WSW 1.6 mph 1.6 mph 80 % 0 in
06:12 55.2 °F 49.3 °F 30.1 in WSW 1.2 mph 1.2 mph 80 % 0 in
06:17 55.2 °F 49.3 °F 30.1 in Calm     80 % 0 in
06:22 55 °F 48.9 °F 30.1 in WSW 2.3 mph 2.3 mph 80 % 0 in
06:27 54.9 °F 48.7 °F 30.1 in Calm     80 % 0 in
06:32 54.7 °F 48.6 °F 30.1 in Calm     80 % 0 in
06:37 54.7 °F 48.6 °F 30.1 in Calm     80 % 0 in
06:42 54.9 °F 49.1 °F 30.1 in Calm     81 % 0 in
06:44 54.9 °F 49.1 °F 30.1 in Calm     81 % 0 in
06:49 54.9 °F 48.7 °F 30.1 in Calm     80 % 0 in
06:54 54.7 °F 48.6 °F 30.1 in Calm     80 % 0 in
06:59 54.7 °F 48.9 °F 30.1 in Calm     81 % 0 in
07:09 54.7 °F 48.6 °F 30.1 in Calm     80 % 0 in
07:14 54.7 °F 48.9 °F 30.1 in Calm     81 % 0 in
07:19 54.9 °F 49.1 °F 30.1 in North 2 mph 2 mph 81 % 0 in
07:24 54.5 °F 48.7 °F 30.1 in NE 1.4 mph 1.6 mph 81 % 0 in
07:29 54.5 °F 48.7 °F 30.1 in NE 1.6 mph 1.6 mph 81 % 0 in
07:39 54.5 °F 48.7 °F 30.1 in NE 2.3 mph 2.3 mph 81 % 0 in
07:44 54.3 °F 48.6 °F 30.1 in North 1.2 mph   81 % 0 in
07:49 54.1 °F 48 °F 30.1 in WNW 1.6 mph 1.6 mph 80 % 0 in
07:54 54 °F 47.8 °F 30.1 in WSW 2.3 mph 2.3 mph 80 % 0 in
07:59 53.8 °F 48 °F 30.1 in Calm     81 % 0 in
08:04 53.8 °F 48 °F 30.1 in Calm     81 % 0 in
08:09 53.8 °F 48 °F 30.1 in Calm     81 % 0 in
08:14 53.8 °F 48 °F 30.1 in SW 2.3 mph 2.3 mph 81 % 0 in
08:19 53.8 °F 48 °F 30.1 in Calm     81 % 0 in
08:24 53.8 °F 48 °F 30.1 in SW 2 mph 2 mph 81 % 0 in
08:29 53.8 °F 48 °F 30.1 in SW 2.6 mph 2.6 mph 81 % 0 in
08:34 54 °F 48.4 °F 30.1 in WSW 2 mph 2 mph 81 % 0 in
08:39 54.1 °F 48.4 °F 30.1 in SW 2.4 mph 2.4 mph 81 % 0 in
08:44 54.1 °F 48.4 °F 30.1 in SW 2.3 mph 2.3 mph 81 % 0 in
08:49 54.3 °F 48.6 °F 30.1 in WSW 2.3 mph 2.3 mph 81 % 0 in
08:54 54.7 °F 49.3 °F 30.1 in WSW 1.6 mph 1.6 mph 82 % 0 in
08:59 55 °F 49.3 °F 30.2 in WSW 1.4 mph   81 % 0 in
09:04 55.8 °F 50.4 °F 30.2 in SW 1.2 mph 1.4 mph 82 % 0 in
09:09 56.5 °F 50.7 °F 30.2 in SW 1.6 mph 1.6 mph 81 % 0 in
09:14 57.2 °F 51.1 °F 30.2 in ESE 1.4 mph   80 % 0 in
09:19 58.3 °F 51.8 °F 30.2 in NE 1.4 mph 1.4 mph 79 % 0 in
09:24 58.6 °F 52.2 °F 30.2 in SSE 1.6 mph   79 % 0 in
09:29 57.7 °F 50.9 °F 30.2 in WSW 2.3 mph 2.3 mph 78 % 0 in
09:34 58.5 °F 51.6 °F 30.2 in WSW 2.3 mph 2.3 mph 78 % 0 in
09:39 59 °F 52.2 °F 30.2 in South 1.2 mph   78 % 0 in
09:44 59 °F 51.8 °F 30.2 in SW 2.3 mph 2.3 mph 77 % 0 in
09:49 58.8 °F 51.6 °F 30.2 in SW 1.2 mph 1.6 mph 77 % 0 in
09:54 59.9 °F 52.3 °F 30.2 in NE 1.4 mph   76 % 0 in
09:59 60.4 °F 52.2 °F 30.2 in East 2.6 mph 2.6 mph 74 % 0 in
10:04 61 °F 52.3 °F 30.2 in NE 2.3 mph 2.3 mph 73 % 0 in
10:09 61.7 °F 53.1 °F 30.2 in NE 2.3 mph 2.3 mph 73 % 0 in
10:14 62.1 °F 52.5 °F 30.2 in NNE 2.3 mph 2.3 mph 71 % 0 in
10:19 62.8 °F 52.5 °F 30.2 in NNW 3.5 mph 3.5 mph 69 % 0 in
10:24 63.3 °F 52.5 °F 30.2 in East 2.4 mph 2.4 mph 68 % 0 in
10:29 63.9 °F 52.7 °F 30.2 in NE 3.1 mph 3.1 mph 67 % 0 in
10:34 64.4 °F 53.2 °F 30.2 in NE 1.2 mph   67 % 0 in
10:39 64.8 °F 53.1 °F 30.2 in NNE 3.5 mph 3.5 mph 66 % 0 in
10:44 64.9 °F 53.2 °F 30.2 in NE 2.3 mph 2.3 mph 66 % 0 in
10:49 65.5 °F 53.4 °F 30.2 in East 2.4 mph 2.4 mph 65 % 0 in
10:54 65.3 °F 53.2 °F 30.2 in North 3.5 mph 3.5 mph 65 % 0 in
10:59 65.5 °F 53.1 °F 30.2 in ENE 4.6 mph 4.6 mph 64 % 0 in
11:04 65.1 °F 52.2 °F 30.2 in NNE 4.6 mph 4.6 mph 63 % 0 in
11:09 65.5 °F 52.5 °F 30.2 in NNE 5.8 mph 5.8 mph 63 % 0 in
11:14 65.7 °F 52.3 °F 30.2 in ENE 5.8 mph 5.8 mph 62 % 0 in
11:19 66 °F 52.5 °F 30.2 in NNE 3.5 mph 3.5 mph 62 % 0 in
11:24 66.9 °F 53.1 °F 30.2 in NE 5.8 mph 5.8 mph 61 % 0 in
11:29 66.7 °F 52.9 °F 30.2 in ENE 3.5 mph 3.5 mph 61 % 0 in
11:34 67.1 °F 52.7 °F 30.2 in NNE 4.6 mph 4.6 mph 60 % 0 in
11:39 66.7 °F 52.3 °F 30.2 in East 4.6 mph 4.6 mph 60 % 0 in
11:44 67.3 °F 52.9 °F 30.2 in NE 4.6 mph 4.6 mph 60 % 0 in
11:49 67.6 °F 53.2 °F 30.2 in NE 3.6 mph 3.6 mph 60 % 0 in
11:54 68.5 °F 53.6 °F 30.2 in NW 2.3 mph 2.3 mph 59 % 0 in
11:59 69.6 °F 54.1 °F 30.2 in WSW 3.5 mph 3.5 mph 58 % 0 in
12:02 69.6 °F 54.1 °F 30.2 in South 2.3 mph 2.3 mph 58 % 0 in
12:07 70.2 °F 54.7 °F 30.2 in ENE 3.5 mph 3.5 mph 58 % 0 in
12:12 70 °F 54.5 °F 30.2 in ESE 4.9 mph 4.9 mph 58 % 0 in
12:17 70.2 °F 54.7 °F 30.2 in SW 2.3 mph 2.3 mph 58 % 0 in
12:22 70.7 °F 55.2 °F 30.2 in North 4.6 mph 4.6 mph 58 % 0 in
12:27 71.2 °F 56.1 °F 30.2 in ENE 3.6 mph 3.6 mph 59 % 0 in
12:32 71.2 °F 56.1 °F 30.2 in East 4.6 mph 4.6 mph 59 % 0 in
12:37 71.8 °F 56.7 °F 30.2 in ESE 3.5 mph 3.5 mph 59 % 0 in
12:42 71.6 °F 56.5 °F 30.2 in ESE 4.6 mph 4.6 mph 59 % 0 in
12:47 72 °F 57.4 °F 30.2 in ESE 6.9 mph 6.9 mph 60 % 0 in
12:52 71.8 °F 56.1 °F 30.2 in ESE 6.2 mph 6.2 mph 58 % 0 in
12:57 72.1 °F 56.5 °F 30.2 in ENE 4.6 mph 4.6 mph 58 % 0 in
13:02 72 °F 56.5 °F 30.2 in NW 5.8 mph 5.8 mph 58 % 0 in
13:07 72.3 °F 56.7 °F 30.2 in ENE 4.6 mph 4.6 mph 58 % 0 in
13:12 73 °F 57.4 °F 30.2 in SSE 3.5 mph 3.5 mph 58 % 0 in
13:17 73 °F 56.8 °F 30.2 in SE 4.6 mph 4.6 mph 57 % 0 in
13:22 73.6 °F 57.4 °F 30.2 in West 5.8 mph 5.8 mph 57 % 0 in
13:27 75 °F 58.3 °F 30.2 in South 3.5 mph 3.5 mph 56 % 0 in
13:32 75.2 °F 57.9 °F 30.2 in SSW 3.8 mph 3.8 mph 55 % 0 in
13:37 75.7 °F 57.9 °F 30.2 in West 4.6 mph 4.6 mph 54 % 0 in
13:42 75 °F 57.2 °F 30.2 in WSW 5.8 mph 5.8 mph 54 % 0 in
13:47 74.8 °F 57.6 °F 30.1 in WSW 3.6 mph 3.6 mph 55 % 0 in
13:52 74.5 °F 56.7 °F 30.1 in ESE 9.2 mph 9.2 mph 54 % 0 in
13:57 74.3 °F 57 °F 30.1 in ENE 6.9 mph 6.9 mph 55 % 0 in
14:02 74.8 °F 57.6 °F 30.1 in East 6.2 mph 6.2 mph 55 % 0 in
14:07 74.1 °F 56.5 °F 30.1 in SSE 6.9 mph 6.9 mph 54 % 0 in
14:12 74.1 °F 56.5 °F 30.1 in ESE 6.9 mph 6.9 mph 54 % 0 in
14:17 73.6 °F 56.5 °F 30.1 in NE 5.8 mph 5.8 mph 55 % 0 in
14:22 73.6 °F 56.5 °F 30.1 in NNE 4.6 mph 4.6 mph 55 % 0 in
14:27 74.8 °F 57.6 °F 30.1 in East 5.9 mph 6 mph 55 % 0 in
14:32 75.7 °F 57.4 °F 30.1 in SSE 5.8 mph 5.8 mph 53 % 0 in
14:37 76.3 °F 57.9 °F 30.1 in ESE 5.8 mph 5.8 mph 53 % 0 in
14:42 77.2 °F 57.7 °F 30.1 in East 4.6 mph 4.6 mph 51 % 0 in
14:47 76.3 °F 57.4 °F 30.1 in ESE 8.5 mph 8.5 mph 52 % 0 in
14:52 75 °F 57.2 °F 30.1 in East 6.9 mph 6.9 mph 54 % 0 in
14:57 75.7 °F 57.4 °F 30.1 in ESE 6.2 mph 6.2 mph 53 % 0 in
15:02 75.7 °F 57.4 °F 30.1 in ESE 9.2 mph 9.2 mph 53 % 0 in
15:07 75 °F 57.7 °F 30.1 in ESE 10 mph 10 mph 55 % 0 in
15:12 74.5 °F 57.7 °F 30.1 in ESE 6.9 mph 6.9 mph 56 % 0 in
15:17 73.9 °F 57.4 °F 30.1 in ESE 3.5 mph 3.5 mph 56 % 0 in
15:22 73.6 °F 56.8 °F 30.1 in SSW 3.5 mph 3.8 mph 56 % 0 in
15:27 73.9 °F 57.7 °F 30.1 in SE 4.6 mph 4.6 mph 57 % 0 in
15:32 74.1 °F 57.4 °F 30.1 in South 4.6 mph 4.6 mph 56 % 0 in
15:37 74.7 °F 57.9 °F 30.1 in South 5.4 mph 5.4 mph 56 % 0 in
15:42 74.7 °F 57.9 °F 30.1 in SSW 2.3 mph 2.6 mph 56 % 0 in
15:47 74.1 °F 57.4 °F 30.1 in SSW 2 mph 2 mph 56 % 0 in
15:52 73.6 °F 56.8 °F 30.1 in SW 3.1 mph 3.1 mph 56 % 0 in
15:57 73.2 °F 57 °F 30.1 in SSE 5.8 mph 5.8 mph 57 % 0 in
16:02 72.7 °F 56.7 °F 30.1 in ESE 2.3 mph 2.3 mph 57 % 0 in
16:07 72.3 °F 56.7 °F 30.1 in SE 5.8 mph 5.8 mph 58 % 0 in
16:12 72.1 °F 56.5 °F 30.1 in SSE 3.5 mph 4 mph 58 % 0 in
16:17 72.1 °F 56.5 °F 30.1 in South 3.5 mph 3.5 mph 58 % 0 in
16:22 72 °F 56.8 °F 30.1 in SE 4.6 mph 4.6 mph 59 % 0 in
16:27 72 °F 57.4 °F 30.1 in South 3.3 mph 3.3 mph 60 % 0 in
16:32 71.6 °F 57 °F 30.1 in ESE 5.8 mph 5.8 mph 60 % 0 in
16:37 71.4 °F 57.4 °F 30.1 in SSE 4.7 mph 4.7 mph 61 % 0 in
16:42 71.6 °F 57.4 °F 30.1 in South 4.6 mph 4.6 mph 61 % 0 in
16:47 71.6 °F 57.4 °F 30.1 in SSW 3.5 mph 3.5 mph 61 % 0 in
16:52 71.6 °F 57.4 °F 30.1 in SSW 3.5 mph 3.6 mph 61 % 0 in
16:57 71.6 °F 57.4 °F 30.1 in South 6.9 mph 6.9 mph 61 % 0 in
17:02 71.6 °F 57.4 °F 30.1 in South 4.6 mph 4.6 mph 61 % 0 in
17:07 71.8 °F 57.6 °F 30.1 in SSE 6.4 mph 6.4 mph 61 % 0 in
17:12 72.1 °F 57.9 °F 30.1 in SSE 6.9 mph 6.9 mph 61 % 0 in
17:17 72.9 °F 58.6 °F 30.1 in West 3.5 mph 3.5 mph 61 % 0 in
17:22 73.6 °F 58.8 °F 30.1 in SW 2.6 mph 2.9 mph 60 % 0 in
17:27 73.8 °F 59 °F 30.1 in SW 5.9 mph 5.9 mph 60 % 0 in
17:32 73 °F 57.9 °F 30.1 in SW 3.5 mph 3.5 mph 59 % 0 in
17:37 72.9 °F 57.7 °F 30.1 in WSW 2.3 mph   59 % 0 in
17:43 73.4 °F 58.3 °F 30.1 in WSW 3.5 mph 3.5 mph 59 % 0 in
17:48 73.6 °F 58.5 °F 30.1 in SW 8.1 mph 8.1 mph 59 % 0 in
17:53 73 °F 58.3 °F 30.1 in WSW 7.4 mph 7.4 mph 60 % 0 in
17:58 73.2 °F 58.5 °F 30.1 in South 5.9 mph 5.9 mph 60 % 0 in
18:03 73 °F 57.9 °F 30.1 in South 5.6 mph 5.6 mph 59 % 0 in
18:08 72.5 °F 57.4 °F 30.1 in SW 6.2 mph 6.2 mph 59 % 0 in
18:13 72.7 °F 57.6 °F 30.1 in SW 5.8 mph 5.8 mph 59 % 0 in
18:18 72.5 °F 57.7 °F 30.1 in SW 4.6 mph 4.6 mph 60 % 0 in
18:23 72.5 °F 57.7 °F 30.1 in SW 5.8 mph 5.8 mph 60 % 0 in
18:28 72.1 °F 57.6 °F 30.1 in South 4.6 mph 4.6 mph 60 % 0 in
18:33 72.1 °F 57.9 °F 30.1 in SW 3.6 mph 3.6 mph 61 % 0 in
18:38 72 °F 57.7 °F 30.1 in SW 4.6 mph 4.6 mph 61 % 0 in
18:43 71.4 °F 57.7 °F 30.1 in West 4.6 mph 4.6 mph 62 % 0 in
18:48 71.2 °F 57.9 °F 30.1 in West 3.5 mph 3.5 mph 63 % 0 in
18:53 70.9 °F 57.7 °F 30.1 in South 4.6 mph 4.6 mph 63 % 0 in
18:58 70.7 °F 57.6 °F 30.1 in SW 5.8 mph 5.8 mph 63 % 0 in
19:03 70.3 °F 57 °F 30.1 in SSE 4.6 mph 4.6 mph 63 % 0 in
19:08 70 °F 57.2 °F 30.1 in SW 2.4 mph 2.4 mph 64 % 0 in
19:13 69.6 °F 57.4 °F 30.1 in SSW 5.8 mph 5.8 mph 65 % 0 in
19:18 69.3 °F 57 °F 30.1 in ESE 4.6 mph 4.6 mph 65 % 0 in
19:23 68.9 °F 57 °F 30.1 in West 3.5 mph 3.5 mph 66 % 0 in
19:28 68.7 °F 56.8 °F 30.1 in WSW 3.5 mph 3.5 mph 66 % 0 in
19:33 68.4 °F 57 °F 30.1 in SW 2.3 mph 2.3 mph 67 % 0 in
19:38 68.2 °F 56.8 °F 30.1 in SW 2.3 mph 2.3 mph 67 % 0 in
19:43 68 °F 56.7 °F 30.1 in WSW 2 mph 2.4 mph 67 % 0 in
19:48 67.8 °F 56.8 °F 30.1 in SW 2.3 mph 2.3 mph 68 % 0 in
19:53 67.6 °F 57 °F 30.1 in SW 2.3 mph 2.3 mph 69 % 0 in
19:58 67.5 °F 56.8 °F 30.1 in SW 1.2 mph   69 % 0 in
20:03 67.3 °F 57.2 °F 30.1 in Calm     70 % 0 in
20:08 67.1 °F 57 °F 30.1 in SW 1.6 mph 1.6 mph 70 % 0 in
20:18 66.7 °F 57 °F 30.1 in SW 1.2 mph   71 % 0 in
20:23 66.7 °F 57 °F 30.1 in SW 1.2 mph   71 % 0 in
20:28 66.6 °F 57.4 °F 30.1 in SW 1.2 mph   72 % 0 in
20:33 66.6 °F 57.4 °F 30.1 in Calm     72 % 0 in
20:38 66.4 °F 57 °F 30.1 in Calm     72 % 0 in
20:43 66.2 °F 56.8 °F 30.1 in Calm     72 % 0 in
20:48 66.2 °F 57.4 °F 30.1 in Calm     73 % 0 in
20:53 66 °F 57.6 °F 30.1 in Calm     74 % 0 in
20:58 66 °F 57.6 °F 30.1 in Calm     74 % 0 in
21:03 65.8 °F 57.7 °F 30.1 in Calm     75 % 0 in
21:08 65.8 °F 57.7 °F 30.1 in Calm     75 % 0 in
21:18 65.7 °F 57.6 °F 30.1 in Calm     75 % 0 in
21:23 65.5 °F 57.7 °F 30.1 in Calm     76 % 0 in
21:28 65.3 °F 57.6 °F 30.1 in Calm     76 % 0 in
21:33 65.3 °F 57.6 °F 30.1 in Calm     76 % 0 in
21:38 65.1 °F 57.4 °F 30.1 in Calm     76 % 0 in
21:43 64.9 °F 57.6 °F 30.1 in Calm     77 % 0 in
21:48 64.9 °F 57.6 °F 30.1 in Calm     77 % 0 in
21:53 64.9 °F 57.6 °F 30.1 in Calm     77 % 0 in
21:58 64.9 °F 57.6 °F 30.1 in Calm     77 % 0 in
22:03 64.9 °F 57.9 °F 30.1 in Calm     78 % 0 in
22:08 64.9 °F 57.9 °F 30.1 in Calm     78 % 0 in
22:13 64.9 °F 57.9 °F 30.1 in Calm     78 % 0 in
22:18 64.8 °F 57.7 °F 30.1 in Calm     78 % 0 in
22:23 64.8 °F 57.7 °F 30.1 in Calm     78 % 0 in
22:28 64.9 °F 57.9 °F 30.2 in Calm     78 % 0 in
22:33 64.8 °F 57.7 °F 30.2 in Calm     78 % 0 in
22:38 64.8 °F 58.1 °F 30.2 in Calm     79 % 0 in
22:43 64.8 °F 58.1 °F 30.1 in Calm     79 % 0 in
22:48 64.8 °F 58.1 °F 30.1 in Calm     79 % 0 in
22:53 64.8 °F 58.1 °F 30.1 in Calm     79 % 0 in
22:58 64.8 °F 57.7 °F 30.1 in Calm     78 % 0 in
23:03 64.6 °F 57.6 °F 30.1 in Calm     78 % 0 in
23:08 64.6 °F 57.6 °F 30.1 in Calm     78 % 0 in
23:13 64.6 °F 57.6 °F 30.1 in Calm     78 % 0 in
23:23 64.4 °F 57.7 °F 30.1 in Calm     79 % 0 in
23:28 64.4 °F 57.7 °F 30.1 in Calm     79 % 0 in
23:33 64.4 °F 57.7 °F 30.1 in Calm     79 % 0 in
23:38 64.4 °F 57.7 °F 30.1 in Calm     79 % 0 in
23:43 64.4 °F 57.7 °F 30.1 in East 1.2 mph   79 % 0 in
23:48 64.4 °F 58.1 °F 30.1 in East 1.4 mph 1.4 mph 80 % 0 in
23:54 64 °F 57.4 °F 30.1 in Calm     79 % 0 in
23:59 64 °F 57.7 °F 30.1 in SSE 2.3 mph 2.3 mph 80 % 0 in
Meteo Sesrovires
Elogis d' Weather Underground - 4 mb

Guio original per  Jim McMurry - jmcmurry@mwt.net Adaptat per a la plantilla per  Wim van der Kuil - Leuven-Template.eu

Trobareu la nostra informacio del temps tambe a:

Weather Underground

AWEKAS